createdAt,value
2023-05-04T00:01:47.637Z,102520.34
2023-05-04T00:04:36.568Z,102524.88
2023-05-04T00:07:23.881Z,102521.72
2023-05-04T00:10:14.404Z,102524.47
2023-05-04T00:13:01.993Z,102525.53
2023-05-04T00:15:50.154Z,102521.34
2023-05-04T00:18:37.837Z,102522.44
2023-05-04T00:21:26.776Z,102517.38
2023-05-04T00:24:16.480Z,102511.50
2023-05-04T00:27:04.382Z,102508.97
2023-05-04T00:29:54.359Z,102509.91
2023-05-04T00:32:42.381Z,102503.28
2023-05-04T00:35:31.785Z,102506.03
2023-05-04T00:38:21.067Z,102502.66
2023-05-04T00:41:10.914Z,102501.94
2023-05-04T00:44:00.096Z,102496.06
2023-05-04T00:46:47.716Z,102503.34
2023-05-04T00:49:39.015Z,102506.22
2023-05-04T00:52:27.846Z,102498.50
2023-05-04T00:55:17.956Z,102486.25
2023-05-04T00:58:06.991Z,102497.75
2023-05-04T01:00:54.791Z,102489.00
2023-05-04T01:03:42.515Z,102489.97
2023-05-04T01:06:38.148Z,102494.72
2023-05-04T01:09:39.347Z,102485.97
2023-05-04T01:12:36.176Z,102482.38
2023-05-04T01:15:24.172Z,102476.38
2023-05-04T01:18:11.653Z,102474.81
2023-05-04T01:20:58.844Z,102469.66
2023-05-04T01:23:47.698Z,102471.78
2023-05-04T01:26:39.812Z,102464.72
2023-05-04T01:29:34.872Z,102461.25
2023-05-04T01:32:24.533Z,102456.19
2023-05-04T01:35:13.759Z,102449.25
2023-05-04T01:38:01.928Z,102449.47
2023-05-04T01:40:50.684Z,102442.19
2023-05-04T01:43:39.217Z,102446.94
2023-05-04T01:46:27.054Z,102444.19
2023-05-04T01:49:14.818Z,102452.22
2023-05-04T01:52:02.527Z,102446.09
2023-05-04T01:54:50.574Z,102451.47
2023-05-04T01:57:39.781Z,102446.09
2023-05-04T02:00:28.895Z,102441.03
2023-05-04T02:03:16.680Z,102446.41
2023-05-04T02:06:04.455Z,102449.06
2023-05-04T02:08:52.325Z,102440.41
2023-05-04T02:11:39.930Z,102439.78
2023-05-04T02:14:29.070Z,102431.28
2023-05-04T02:17:16.624Z,102422.34
2023-05-04T02:20:05.507Z,102424.25
2023-05-04T02:22:56.976Z,102428.25
2023-05-04T02:25:44.688Z,102422.97
2023-05-04T02:28:32.479Z,102422.25
2023-05-04T02:31:24.209Z,102406.66
2023-05-04T02:34:12.227Z,102411.31
2023-05-04T02:36:59.657Z,102405.09
2023-05-04T02:39:47.294Z,102398.47
2023-05-04T02:42:37.230Z,102407.44
2023-05-04T02:45:25.069Z,102399.41
2023-05-04T02:48:18.051Z,102404.69
2023-05-04T02:51:12.251Z,102401.56
2023-05-04T02:53:59.541Z,102391.03
2023-05-04T02:56:46.993Z,102392.72
2023-05-04T02:59:34.765Z,102386.94
2023-05-04T03:02:22.775Z,102386.81
2023-05-04T03:05:11.979Z,102381.56
2023-05-04T03:07:59.672Z,102389.34
2023-05-04T03:10:49.950Z,102391.47
2023-05-04T03:13:39.629Z,102387.13
2023-05-04T03:16:30.452Z,102387.25
2023-05-04T03:19:19.196Z,102381.88
2023-05-04T03:22:08.143Z,102378.63
2023-05-04T03:24:55.648Z,102383.88
2023-05-04T03:27:46.430Z,102383.16
2023-05-04T03:30:34.202Z,102384.81
2023-05-04T03:33:22.271Z,102377.16
2023-05-04T03:36:09.856Z,102370.09
2023-05-04T03:38:59.273Z,102375.56
2023-05-04T03:41:46.901Z,102372.19
2023-05-04T03:44:34.613Z,102368.72
2023-05-04T03:47:23.977Z,102363.81
2023-05-04T03:50:14.915Z,102358.03
2023-05-04T03:53:02.327Z,102367.81
2023-05-04T03:55:54.631Z,102364.97
2023-05-04T03:58:42.784Z,102356.97
2023-05-04T04:01:30.211Z,102359.28
2023-05-04T04:04:17.896Z,102348.78
2023-05-04T04:07:08.870Z,102352.25
2023-05-04T04:09:57.379Z,102353.41
2023-05-04T04:12:48.877Z,102350.03
2023-05-04T04:15:36.371Z,102350.03
2023-05-04T04:18:27.409Z,102350.97
2023-05-04T04:21:15.097Z,102337.81
2023-05-04T04:24:03.441Z,102338.78
2023-05-04T04:26:52.101Z,102343.94
2023-05-04T04:29:41.129Z,102340.34
2023-05-04T04:32:29.163Z,102334.97
2023-05-04T04:35:20.405Z,102338.97
2023-05-04T04:38:09.195Z,102338.97
2023-05-04T04:40:57.448Z,102329.41
2023-05-04T04:43:46.455Z,102335.28
2023-05-04T04:46:35.692Z,102336.25
2023-05-04T04:49:23.761Z,102334.22
2023-05-04T04:52:12.290Z,102327.28
2023-05-04T04:55:00.047Z,102333.81
2023-05-04T04:57:48.240Z,102332.13
2023-05-04T05:00:36.469Z,102324.44
2023-05-04T05:03:25.726Z,102326.63
2023-05-04T05:06:16.915Z,102322.81
2023-05-04T05:09:04.964Z,102323.53
2023-05-04T05:11:55.418Z,102320.91
2023-05-04T05:14:43.552Z,102322.16
2023-05-04T05:17:31.529Z,102321.44
2023-05-04T05:20:23.789Z,102320.66
2023-05-04T05:23:11.494Z,102331.31
2023-05-04T05:26:01.965Z,102315.03
2023-05-04T05:28:56.255Z,102318.50
2023-05-04T05:31:43.559Z,102316.59
2023-05-04T05:34:31.420Z,102317.63
2023-05-04T05:37:21.257Z,102311.56
2023-05-04T05:40:12.710Z,102324.41
2023-05-04T05:43:03.845Z,102311.84
2023-05-04T05:45:57.143Z,102314.88
2023-05-04T05:48:44.954Z,102317.19
2023-05-04T05:51:36.373Z,102316.34
2023-05-04T05:54:26.486Z,102324.34
2023-05-04T05:57:13.905Z,102317.09
2023-05-04T06:00:05.355Z,102311.09
2023-05-04T06:02:53.776Z,102310.25
2023-05-04T06:05:41.597Z,102304.19
2023-05-04T06:08:31.859Z,102299.84
2023-05-04T06:11:21.620Z,102296.41
2023-05-04T06:14:09.152Z,102306.94
2023-05-04T06:16:57.213Z,102301.00
2023-05-04T06:19:48.098Z,102300.38
2023-05-04T06:22:36.888Z,102297.88
2023-05-04T06:25:24.248Z,102295.22
2023-05-04T06:28:13.822Z,102291.44
2023-05-04T06:31:02.356Z,102291.72
2023-05-04T06:33:50.153Z,102287.91
2023-05-04T06:36:37.914Z,102288.97
2023-05-04T06:39:28.256Z,102286.13
2023-05-04T06:42:16.269Z,102282.88
2023-05-04T06:45:09.269Z,102275.59
2023-05-04T06:47:56.803Z,102276.28
2023-05-04T06:50:45.444Z,102269.69
2023-05-04T06:53:35.354Z,102272.44
2023-05-04T06:56:25.652Z,102278.03
2023-05-04T06:59:13.272Z,102278.53
2023-05-04T07:02:02.610Z,102268.88
2023-05-04T07:04:50.600Z,102274.63
2023-05-04T07:07:38.325Z,102261.66
2023-05-04T07:10:26.124Z,102258.53
2023-05-04T07:13:14.830Z,102260.75
2023-05-04T07:16:07.713Z,102252.50
2023-05-04T07:19:05.427Z,102242.22
2023-05-04T07:21:56.813Z,102256.78
2023-05-04T07:24:44.979Z,102244.75
2023-05-04T07:27:35.430Z,102250.09
2023-05-04T07:30:30.319Z,102253.53
2023-05-04T07:33:23.131Z,102253.00
2023-05-04T07:36:12.508Z,102246.41
2023-05-04T07:39:00.216Z,102245.66
2023-05-04T07:41:52.363Z,102243.94
2023-05-04T07:44:43.041Z,102236.44
2023-05-04T07:47:37.093Z,102240.81
2023-05-04T07:50:25.604Z,102225.41
2023-05-04T07:53:14.816Z,102224.94
2023-05-04T07:56:08.842Z,102228.38
2023-05-04T07:58:56.387Z,102221.16
2023-05-04T08:01:46.843Z,102210.41
2023-05-04T08:04:36.483Z,102222.41
2023-05-04T08:07:24.190Z,102206.53
2023-05-04T08:10:13.562Z,102201.63
2023-05-04T08:13:02.004Z,102204.28
2023-05-04T08:15:52.471Z,102201.88
2023-05-04T08:18:40.077Z,102192.84
2023-05-04T08:21:31.209Z,102190.66
2023-05-04T08:24:18.986Z,102185.06
2023-05-04T08:27:08.736Z,102182.44
2023-05-04T08:29:57.814Z,102187.31
2023-05-04T08:32:45.395Z,102191.47
2023-05-04T08:35:38.077Z,102182.53
2023-05-04T08:38:26.216Z,102184.50
2023-05-04T08:41:17.515Z,102183.22
2023-05-04T08:44:12.379Z,102183.69
2023-05-04T08:47:03.402Z,102174.72
2023-05-04T08:49:53.051Z,102179.19
2023-05-04T08:52:46.446Z,102170.16
2023-05-04T08:55:39.976Z,102162.09
2023-05-04T08:58:31.692Z,102165.50
2023-05-04T09:01:24.621Z,102160.53
2023-05-04T09:04:15.150Z,102161.28
2023-05-04T09:07:06.515Z,102156.09
2023-05-04T09:09:58.276Z,102163.16
2023-05-04T09:12:53.716Z,102153.34
2023-05-04T09:15:41.106Z,102154.59
2023-05-04T09:18:41.058Z,102146.56
2023-05-04T09:21:33.270Z,102143.00
2023-05-04T09:24:27.998Z,102139.34
2023-05-04T09:27:18.298Z,102131.38
2023-05-04T09:30:07.360Z,102138.88
2023-05-04T09:32:55.408Z,102134.59
2023-05-04T09:35:45.501Z,102135.66
2023-05-04T09:38:33.593Z,102131.09
2023-05-04T09:41:33.401Z,102122.19
2023-05-04T09:44:24.237Z,102116.50
2023-05-04T09:47:20.736Z,102108.97
2023-05-04T09:50:13.020Z,102110.59
2023-05-04T09:53:08.882Z,102106.69
2023-05-04T09:56:11.447Z,102104.59
2023-05-04T09:58:59.805Z,102109.81
2023-05-04T10:01:48.823Z,102105.88
2023-05-04T10:04:40.165Z,102093.75
2023-05-04T10:07:31.934Z,102095.03
2023-05-04T10:10:21.146Z,102091.50
2023-05-04T10:13:08.847Z,102091.09
2023-05-04T10:16:07.624Z,102086.66
2023-05-04T10:19:21.266Z,102082.31
2023-05-04T10:22:21.287Z,102090.31
2023-05-04T10:25:32.137Z,102078.66
2023-05-04T10:28:32.277Z,102076.31
2023-05-04T10:31:20.421Z,102067.25
2023-05-04T10:34:23.590Z,102058.66
2023-05-04T10:37:17.390Z,102048.19
2023-05-04T10:40:07.768Z,102051.16
2023-05-04T10:42:57.458Z,102043.59
2023-05-04T10:45:46.109Z,102041.84
2023-05-04T10:48:37.531Z,102035.47
2023-05-04T10:51:38.896Z,102032.19
2023-05-04T10:54:38.244Z,102017.75
2023-05-04T10:57:29.934Z,102016.69
2023-05-04T11:00:19.767Z,102015.72
2023-05-04T11:03:08.981Z,102012.31
2023-05-04T11:05:56.576Z,102004.72
2023-05-04T11:08:46.586Z,102008.03
2023-05-04T11:11:38.858Z,102002.53
2023-05-04T11:14:27.730Z,101990.50
2023-05-04T11:17:28.093Z,101985.31
2023-05-04T11:20:26.615Z,101974.41
2023-05-04T11:23:19.460Z,101971.97
2023-05-04T11:26:20.566Z,101967.97
2023-05-04T11:29:13.669Z,101966.28
2023-05-04T11:32:01.593Z,101960.91
2023-05-04T11:34:50.349Z,101949.56
2023-05-04T11:37:42.153Z,101945.88
2023-05-04T11:40:30.084Z,101941.00
2023-05-04T11:43:22.732Z,101937.59
2023-05-04T11:46:11.619Z,101939.44
2023-05-04T11:49:07.295Z,101941.28
2023-05-04T11:52:05.634Z,101930.34
2023-05-04T11:54:57.365Z,101930.94
2023-05-04T11:57:48.594Z,101921.09
2023-05-04T12:00:42.111Z,101922.88
2023-05-04T12:03:43.762Z,101920.66
2023-05-04T12:06:41.762Z,101911.66
2023-05-04T12:09:30.725Z,101908.88
2023-05-04T12:12:21.317Z,101905.41
2023-05-04T12:15:10.885Z,101895.59
2023-05-04T12:18:00.967Z,101890.03
2023-05-04T12:20:53.527Z,101898.78
2023-05-04T12:23:43.747Z,101888.94
2023-05-04T12:26:38.630Z,101875.53
2023-05-04T12:29:29.544Z,101884.91
2023-05-04T12:32:20.637Z,101878.28
2023-05-04T12:35:09.056Z,101862.91
2023-05-04T12:37:56.730Z,101856.47
2023-05-04T12:41:04.725Z,101854.41
2023-05-04T12:43:57.012Z,101838.28
2023-05-04T12:46:51.205Z,101837.91
2023-05-04T12:49:42.454Z,101837.41
2023-05-04T12:52:30.214Z,101829.84
2023-05-04T12:55:17.767Z,101837.75
2023-05-04T12:58:10.408Z,101822.59
2023-05-04T13:01:02.008Z,101818.38
2023-05-04T13:03:52.927Z,101816.81
2023-05-04T13:06:40.842Z,101801.13
2023-05-04T13:09:30.816Z,101798.47
2023-05-04T13:12:20.681Z,101796.84
2023-05-04T13:15:10.061Z,101802.22
2023-05-04T13:18:01.115Z,101787.78
2023-05-04T13:20:50.774Z,101783.63
2023-05-04T13:23:44.754Z,101782.63
2023-05-04T13:26:32.529Z,101771.25
2023-05-04T13:29:22.273Z,101771.66
2023-05-04T13:32:10.834Z,101765.84
2023-05-04T13:35:08.888Z,101754.28
2023-05-04T13:37:56.401Z,101749.94
2023-05-04T13:40:57.708Z,101747.47
2023-05-04T13:43:47.680Z,101743.81
2023-05-04T13:46:37.080Z,101731.56
2023-05-04T13:49:25.743Z,101737.50
2023-05-04T13:53:13.111Z,101729.63
2023-05-04T13:56:05.989Z,101719.31
2023-05-04T13:58:58.653Z,101715.88
2023-05-04T14:01:57.477Z,101703.94
2023-05-04T14:04:46.752Z,101702.34
2023-05-04T14:07:36.008Z,101692.38
2023-05-04T14:10:24.337Z,101691.84
2023-05-04T14:13:12.366Z,101687.31
2023-05-04T14:16:00.664Z,101676.50
2023-05-04T14:18:49.312Z,101675.19
2023-05-04T14:21:43.869Z,101681.03
2023-05-04T14:24:33.081Z,101675.72
2023-05-04T14:27:21.361Z,101670.00
2023-05-04T14:30:10.500Z,101680.03
2023-05-04T14:33:01.105Z,101666.38
2023-05-04T14:35:52.087Z,101662.41
2023-05-04T14:38:42.409Z,101660.56
2023-05-04T14:41:51.046Z,101644.91
2023-05-04T14:44:54.945Z,101643.13
2023-05-04T14:47:42.535Z,101639.22
2023-05-04T14:50:32.155Z,101633.59
2023-05-04T14:53:22.455Z,101634.88
2023-05-04T14:56:27.529Z,101633.88
2023-05-04T14:59:19.085Z,101627.44
2023-05-04T15:02:08.185Z,101625.59
2023-05-04T15:05:00.761Z,101617.94
2023-05-04T15:07:54.500Z,101620.78
2023-05-04T15:10:42.023Z,101628.91
2023-05-04T15:13:29.772Z,101620.81
2023-05-04T15:16:19.634Z,101617.84
2023-05-04T15:19:07.261Z,101612.72
2023-05-04T15:21:55.000Z,101606.31
2023-05-04T15:24:43.203Z,101618.50
2023-05-04T15:27:35.289Z,101607.22
2023-05-04T15:30:23.524Z,101611.28
2023-05-04T15:33:13.852Z,101608.59
2023-05-04T15:36:06.998Z,101605.81
2023-05-04T15:39:00.610Z,101609.06
2023-05-04T15:41:48.491Z,101607.69
2023-05-04T15:44:52.280Z,101610.38
2023-05-04T15:47:40.218Z,101590.81
2023-05-04T15:50:31.117Z,101596.84
2023-05-04T15:53:22.449Z,101591.47
2023-05-04T15:56:14.853Z,101585.56
2023-05-04T15:59:02.799Z,101575.25
2023-05-04T16:01:50.583Z,101577.25
2023-05-04T16:04:41.278Z,101577.28
2023-05-04T16:07:30.997Z,101570.31
2023-05-04T16:10:23.591Z,101566.78
2023-05-04T16:13:12.250Z,101562.94
2023-05-04T16:16:00.489Z,101554.22
2023-05-04T16:18:48.936Z,101550.53
2023-05-04T16:21:36.788Z,101552.53
2023-05-04T16:24:26.667Z,101548.97
2023-05-04T16:27:19.472Z,101545.34
2023-05-04T16:30:09.896Z,101543.19
2023-05-04T16:32:57.823Z,101531.91
2023-05-04T16:35:51.115Z,101536.66
2023-05-04T16:38:39.116Z,101530.94
2023-05-04T16:41:31.106Z,101538.78
2023-05-04T16:44:21.259Z,101520.53
2023-05-04T16:47:09.319Z,101533.66
2023-05-04T16:49:56.687Z,101530.75
2023-05-04T16:52:47.118Z,101535.94
2023-05-04T16:55:38.552Z,101542.03
2023-05-04T16:58:27.563Z,101538.66
2023-05-04T17:01:15.074Z,101532.63
2023-05-04T17:04:09.448Z,101522.25
2023-05-04T17:07:01.462Z,101522.06
2023-05-04T17:09:50.210Z,101523.66
2023-05-04T17:12:38.084Z,101513.69
2023-05-04T17:15:38.656Z,101520.94
2023-05-04T17:18:26.167Z,101517.47
2023-05-04T17:21:14.604Z,101525.13
2023-05-04T17:24:02.297Z,101523.31
2023-05-04T17:26:50.370Z,101531.28
2023-05-04T17:29:46.509Z,101535.63
2023-05-04T17:32:37.404Z,101531.56
2023-05-04T17:35:27.727Z,101527.66
2023-05-04T17:38:15.864Z,101527.22
2023-05-04T17:44:40.290Z,101526.56
2023-05-04T17:47:27.934Z,101536.34
2023-05-04T17:50:17.416Z,101543.09
2023-05-04T17:53:04.972Z,101540.06
2023-05-04T17:55:52.433Z,101532.09
2023-05-04T17:58:40.007Z,101536.09
2023-05-04T18:01:27.693Z,101534.44
2023-05-04T18:04:15.882Z,101537.53
2023-05-04T18:07:05.614Z,101543.97
2023-05-04T18:09:58.016Z,101540.13
2023-05-04T18:12:48.378Z,101539.72
2023-05-04T18:15:35.831Z,101544.34
2023-05-04T18:18:23.537Z,101550.63
2023-05-04T18:21:14.203Z,101542.59
2023-05-04T18:24:04.505Z,101543.88
2023-05-04T18:26:53.635Z,101549.88
2023-05-04T18:29:41.232Z,101549.06
2023-05-04T18:32:28.785Z,101552.34
2023-05-04T18:35:17.690Z,101549.06
2023-05-04T18:38:05.568Z,101554.22
2023-05-04T18:40:55.245Z,101554.84
2023-05-04T18:43:42.843Z,101555.03
2023-05-04T18:46:30.714Z,101552.34
2023-05-04T18:49:35.763Z,101556.25
2023-05-04T18:52:26.404Z,101560.38
2023-05-04T18:55:14.063Z,101553.19
2023-05-04T18:58:04.101Z,101551.91
2023-05-04T19:00:54.298Z,101555.22
2023-05-04T19:03:45.619Z,101550.88
2023-05-04T19:07:04.166Z,101553.13
2023-05-04T19:09:51.777Z,101553.53
2023-05-04T19:12:39.122Z,101558.28
2023-05-04T19:15:28.621Z,101550.84
2023-05-04T19:18:19.255Z,101546.72
2023-05-04T19:21:09.986Z,101546.84
2023-05-04T19:23:57.652Z,101554.69
2023-05-04T19:26:45.960Z,101556.75
2023-05-04T19:29:36.613Z,101550.50
2023-05-04T19:32:30.446Z,101551.94
2023-05-04T19:35:21.775Z,101552.16
2023-05-04T19:38:09.541Z,101553.19
2023-05-04T19:40:57.115Z,101549.84
2023-05-04T19:43:44.980Z,101553.50
2023-05-04T19:46:35.984Z,101546.47
2023-05-04T19:49:25.341Z,101552.03
2023-05-04T19:52:13.982Z,101551.63
2023-05-04T19:55:01.736Z,101549.50
2023-05-04T19:58:10.909Z,101544.28
2023-05-04T20:01:02.133Z,101550.47
2023-05-04T20:03:58.648Z,101542.41
2023-05-04T20:06:49.085Z,101542.59
2023-05-04T20:09:36.790Z,101545.66
2023-05-04T20:12:26.447Z,101542.69
2023-05-04T20:15:16.516Z,101539.19
2023-05-04T20:18:04.475Z,101535.88
2023-05-04T20:20:52.653Z,101541.50
2023-05-04T20:23:43.875Z,101539.00
2023-05-04T20:26:31.577Z,101540.38
2023-05-04T20:29:19.761Z,101535.91
2023-05-04T20:32:09.060Z,101538.19
2023-05-04T20:34:56.759Z,101536.66
2023-05-04T20:37:44.367Z,101532.78
2023-05-04T20:40:34.583Z,101529.84
2023-05-04T20:43:22.177Z,101524.88
2023-05-04T20:46:12.398Z,101525.41
2023-05-04T20:49:03.317Z,101521.94
2023-05-04T20:51:50.746Z,101517.63
2023-05-04T20:54:38.306Z,101518.25
2023-05-04T20:57:27.139Z,101509.19
2023-05-04T21:00:20.751Z,101506.28
2023-05-04T21:03:09.685Z,101505.09
2023-05-04T21:05:57.347Z,101501.41
2023-05-04T21:08:44.939Z,101498.41
2023-05-04T21:11:36.400Z,101506.50
2023-05-04T21:14:27.554Z,101494.25
2023-05-04T21:17:17.441Z,101495.19
2023-05-04T21:20:06.605Z,101490.91
2023-05-04T21:22:54.150Z,101489.44
2023-05-04T21:25:42.085Z,101487.78
2023-05-04T21:28:30.888Z,101479.31
2023-05-04T21:31:37.193Z,101482.94
2023-05-04T21:34:25.239Z,101483.16
2023-05-04T21:37:12.873Z,101480.41
2023-05-04T21:40:03.128Z,101481.00
2023-05-04T21:42:51.529Z,101479.09
2023-05-04T21:45:39.395Z,101477.44
2023-05-04T21:48:29.731Z,101475.53
2023-05-04T21:51:21.061Z,101474.09
2023-05-04T21:54:12.320Z,101471.44
2023-05-04T21:56:59.922Z,101471.91
2023-05-04T21:59:50.629Z,101474.53
2023-05-04T22:02:38.736Z,101470.31
2023-05-04T22:05:29.345Z,101471.91
2023-05-04T22:08:16.784Z,101468.84
2023-05-04T22:11:04.828Z,101462.09
2023-05-04T22:13:52.544Z,101460.91
2023-05-04T22:16:40.075Z,101458.44
2023-05-04T22:19:27.365Z,101457.59
2023-05-04T22:22:16.566Z,101462.19
2023-05-04T22:25:04.583Z,101460.53
2023-05-04T22:27:52.851Z,101456.03
2023-05-04T22:30:40.101Z,101459.25
2023-05-04T22:33:27.725Z,101447.50
2023-05-04T22:36:15.552Z,101442.59
2023-05-04T22:39:04.308Z,101444.00
2023-05-04T22:41:51.661Z,101443.56
2023-05-04T22:44:39.099Z,101453.31
2023-05-04T22:47:28.109Z,101445.75
2023-05-04T22:50:15.595Z,101455.69
2023-05-04T22:53:03.287Z,101457.72
2023-05-04T22:55:52.609Z,101453.84
2023-05-04T22:59:04.759Z,101461.56
2023-05-04T23:01:52.297Z,101458.06
2023-05-04T23:04:39.956Z,101466.25
2023-05-04T23:07:27.723Z,101466.16
2023-05-04T23:10:15.365Z,101476.69
2023-05-04T23:13:04.235Z,101502.16
2023-05-04T23:15:52.042Z,101514.88
2023-05-04T23:18:39.381Z,101497.84
2023-05-04T23:21:29.855Z,101501.09
2023-05-04T23:24:17.588Z,101499.31
2023-05-04T23:27:05.113Z,101510.13
2023-05-04T23:29:57.137Z,101507.25
2023-05-04T23:32:45.049Z,101508.78
2023-05-04T23:35:37.070Z,101509.16
2023-05-04T23:38:24.930Z,101499.59
2023-05-04T23:41:12.680Z,101508.97
2023-05-04T23:44:00.158Z,101513.97
2023-05-04T23:46:49.086Z,101515.53
2023-05-04T23:49:36.463Z,101520.41
2023-05-04T23:52:23.896Z,101512.22
2023-05-04T23:55:11.632Z,101516.06
2023-05-04T23:57:59.187Z,101519.75
